Sharjah, United Arab Emirates
Current Conditions -  °F | °C
As of 6:00 PM on Sunday 21 Dec 2014 (Local Time) from OMSJ Reporting Station
Clear Clear  
Wind Chill: 72°   Ceiling: Unl
Heat Index: 72°   Visibility: 6mi
Dew Point: 54°   Wind: 9mph
Humidity: 53%   Direction: 270°W
Pressure: 29.94"   Gusts: NA
Location:  25.37°N, 55.41°E
Report Text: OMSJ 211400Z 27008KT CAVOK 22/12 Q1014
Loading
Personal Weather Stations






























Interactive Weather Map New forecast layout! Learn more

10-Day Weather Forecast

Advertisements
Track Severe Weather on mobile